Time;durP1;ratioP1;P1;durP2;ratioP2;P2;SDS_P1;SDS_P2;PMS_P1;PMS_P2;Temp;Humidity;BMP_temperature;BMP_pressure;BME280_temperature;BME280_humidity;BME280_pressure;Samples;Min_cycle;Max_cycle;Signal;HPM_P1;HPM_P2
2023/06/14 00:00:21;;;;;;;;;;;21.50;99.90;;;;;;5093564;28;19904;-75
2023/06/14 00:02:46;;;;;;;;;;;21.60;99.90;;;;;;5075361;28;19908;-75
2023/06/14 00:05:13;;;;;;;;;;;21.70;99.90;;;;;;5093554;28;19951;-75
2023/06/14 00:07:42;;;;;;;;;;;21.70;99.90;;;;;;5093379;28;19912;-76
2023/06/14 00:10:09;;;;;;;;;;;21.80;99.90;;;;;;5093411;28;19911;-76
2023/06/14 00:12:35;;;;;;;;;;;21.80;99.90;;;;;;5093016;28;19956;-75
2023/06/14 00:15:03;;;;;;;;;;;21.70;99.90;;;;;;5093325;28;20048;-76
2023/06/14 00:17:30;;;;;;;;;;;21.70;99.90;;;;;;5093788;28;20013;-75
2023/06/14 00:19:56;;;;;;;;;;;21.70;99.90;;;;;;5093253;28;20014;-73
2023/06/14 00:22:24;;;;;;;;;;;21.70;99.90;;;;;;5093233;28;19918;-75
2023/06/14 00:24:50;;;;;;;;;;;21.70;99.90;;;;;;5093094;28;19911;-75
2023/06/14 00:27:16;;;;;;;;;;;21.70;99.90;;;;;;5093393;28;19916;-76
2023/06/14 00:29:42;;;;;;;;;;;21.70;99.90;;;;;;5093446;28;19950;-76
2023/06/14 00:32:08;;;;;;;;;;;21.80;99.90;;;;;;5093322;28;19904;-75
2023/06/14 00:34:34;;;;;;;;;;;21.80;99.90;;;;;;5093110;28;19915;-75
2023/06/14 00:37:00;;;;;;;;;;;21.80;99.90;;;;;;5074785;28;19904;-75
2023/06/14 00:39:26;;;;;;;;;;;21.60;99.90;;;;;;5092884;28;19904;-75
2023/06/14 00:41:59;;;;;;;;;;;21.60;99.90;;;;;;5091708;28;19966;-75
2023/06/14 00:44:25;;;;;;;;;;;21.60;99.90;;;;;;5093575;28;19908;-76
2023/06/14 00:46:51;;;;;;;;;;;21.70;99.90;;;;;;5093039;28;19934;-76
2023/06/14 00:49:17;;;;;;;;;;;21.70;99.90;;;;;;5093355;28;19942;-75
2023/06/14 00:51:43;;;;;;;;;;;21.80;99.90;;;;;;5092991;28;19912;-75
2023/06/14 00:54:09;;;;;;;;;;;21.80;99.90;;;;;;5093139;28;19904;-76
2023/06/14 00:56:38;;;;;;;;;;;21.90;99.90;;;;;;5091654;28;20244;-75
2023/06/14 00:59:04;;;;;;;;;;;21.70;99.90;;;;;;5096006;28;19919;-74
2023/06/14 01:01:33;;;;;;;;;;;21.70;99.90;;;;;;5096881;28;19904;-76
2023/06/14 01:04:01;;;;;;;;;;;21.60;99.90;;;;;;5096856;28;19904;-76
2023/06/14 01:06:45;;;;;;;;;;;21.60;99.90;;;;;;5097246;28;19908;-75
2023/06/14 01:09:18;;;;;;;;;;;21.50;99.90;;;;;;5096585;28;20307;-75
2023/06/14 01:11:50;;;;;;;;;;;21.60;99.90;;;;;;5096705;28;19919;-75
2023/06/14 01:14:17;;;;;;;;;;;21.60;99.90;;;;;;5097291;28;20010;-76
2023/06/14 01:16:45;;;;;;;;;;;21.60;99.90;;;;;;5096589;28;19911;-75
2023/06/14 01:19:13;;;;;;;;;;;21.70;99.90;;;;;;5078424;28;20378;-75
2023/06/14 01:21:41;;;;;;;;;;;21.70;99.90;;;;;;5096479;28;19995;-76
2023/06/14 01:24:11;;;;;;;;;;;21.70;99.90;;;;;;5078358;28;19912;-75
2023/06/14 01:26:37;;;;;;;;;;;21.70;99.90;;;;;;5096603;28;19908;-75
2023/06/14 01:29:03;;;;;;;;;;;21.80;99.90;;;;;;5096949;28;19911;-76
2023/06/14 01:31:29;;;;;;;;;;;21.80;99.90;;;;;;5096377;28;19904;-75
2023/06/14 01:33:55;;;;;;;;;;;21.90;99.90;;;;;;5078010;28;19962;-75
2023/06/14 01:36:22;;;;;;;;;;;21.90;99.90;;;;;;5096747;28;20306;-75
2023/06/14 01:38:50;;;;;;;;;;;22.00;99.90;;;;;;5096208;28;19908;-75
2023/06/14 01:41:16;;;;;;;;;;;22.00;99.90;;;;;;5096057;28;19904;-75
2023/06/14 01:43:43;;;;;;;;;;;22.00;99.90;;;;;;5096061;28;20335;-75
2023/06/14 01:46:09;;;;;;;;;;;22.00;99.90;;;;;;5096236;28;19907;-75
2023/06/14 01:48:35;;;;;;;;;;;22.00;99.90;;;;;;5095950;28;19904;-75
2023/06/14 01:51:01;;;;;;;;;;;22.10;99.90;;;;;;5096154;28;20317;-75
2023/06/14 01:53:26;;;;;;;;;;;22.00;99.90;;;;;;5095800;28;20448;-75
2023/06/14 01:55:54;;;;;;;;;;;22.10;99.90;;;;;;5095649;28;19911;-75
2023/06/14 01:58:20;;;;;;;;;;;22.10;99.90;;;;;;5094479;28;20045;-75
2023/06/14 02:00:47;;;;;;;;;;;22.20;99.90;;;;;;5096302;28;19963;-75
2023/06/14 02:03:13;;;;;;;;;;;22.10;99.90;;;;;;5095934;28;19994;-75
2023/06/14 02:05:39;;;;;;;;;;;22.00;99.90;;;;;;5096007;28;19943;-75
2023/06/14 02:08:06;;;;;;;;;;;22.00;99.90;;;;;;5095879;28;19912;-75
2023/06/14 02:10:32;;;;;;;;;;;22.00;99.90;;;;;;5094556;28;19991;-74
2023/06/14 02:12:57;;;;;;;;;;;21.80;99.90;;;;;;5095375;28;19955;-76
2023/06/14 02:15:23;;;;;;;;;;;21.90;99.90;;;;;;5095774;28;20317;-75
2023/06/14 02:17:49;;;;;;;;;;;21.90;99.90;;;;;;5077307;28;19920;-75
2023/06/14 02:20:15;;;;;;;;;;;21.90;99.90;;;;;;5077195;28;19907;-76
2023/06/14 02:22:41;;;;;;;;;;;21.90;99.90;;;;;;5095352;28;19910;-75
2023/06/14 02:25:07;;;;;;;;;;;21.90;99.90;;;;;;5095285;28;19931;-75
2023/06/14 02:27:33;;;;;;;;;;;21.80;99.90;;;;;;5094019;28;19912;-75
2023/06/14 02:30:00;;;;;;;;;;;21.80;99.90;;;;;;5095189;28;19926;-76
2023/06/14 02:32:27;;;;;;;;;;;21.70;99.90;;;;;;5095101;28;19911;-75
2023/06/14 02:34:53;;;;;;;;;;;21.60;99.90;;;;;;5095577;28;19911;-75
2023/06/14 02:37:19;;;;;;;;;;;21.60;99.90;;;;;;5095380;28;19904;-76
2023/06/14 02:39:45;;;;;;;;;;;21.60;99.90;;;;;;5094876;28;19957;-76
2023/06/14 02:42:11;;;;;;;;;;;21.60;99.90;;;;;;5094012;28;19908;-75
2023/06/14 02:44:37;;;;;;;;;;;21.60;99.90;;;;;;5095481;28;20403;-76
2023/06/14 02:47:03;;;;;;;;;;;21.60;99.90;;;;;;5094771;28;19919;-75
2023/06/14 02:49:29;;;;;;;;;;;21.60;99.90;;;;;;5076713;28;19904;-75
2023/06/14 02:51:55;;;;;;;;;;;21.70;99.90;;;;;;5094853;28;19957;-75
2023/06/14 02:54:21;;;;;;;;;;;21.60;99.90;;;;;;5094926;28;19904;-74
2023/06/14 02:56:47;;;;;;;;;;;21.70;99.90;;;;;;5094875;28;19944;-75
2023/06/14 02:59:13;;;;;;;;;;;21.70;99.90;;;;;;5094696;28;19904;-75
2023/06/14 03:01:40;;;;;;;;;;;21.70;99.90;;;;;;5094558;28;19904;-75
2023/06/14 03:04:07;;;;;;;;;;;21.80;99.90;;;;;;5094553;28;20328;-75
2023/06/14 03:06:33;;;;;;;;;;;21.70;99.90;;;;;;5094439;28;19912;-76
2023/06/14 03:09:05;;;;;;;;;;;21.50;99.90;;;;;;5093086;28;19984;-76
2023/06/14 03:11:32;;;;;;;;;;;21.50;99.90;;;;;;5094197;28;19997;-75
2023/06/14 03:13:58;;;;;;;;;;;21.50;99.90;;;;;;5094833;28;19916;-76
2023/06/14 03:16:24;;;;;;;;;;;21.50;99.90;;;;;;5094345;28;19904;-75
2023/06/14 03:18:53;;;;;;;;;;;21.50;99.90;;;;;;5076110;28;19927;-75
2023/06/14 03:21:20;;;;;;;;;;;21.50;99.90;;;;;;5094157;28;19998;-75
2023/06/14 03:23:46;;;;;;;;;;;21.50;99.90;;;;;;5094098;28;19948;-75
2023/06/14 03:26:14;;;;;;;;;;;21.60;99.90;;;;;;5093975;28;19908;-75
2023/06/14 03:28:41;;;;;;;;;;;21.60;99.90;;;;;;5094015;28;19908;-74
2023/06/14 03:31:08;;;;;;;;;;;21.50;99.90;;;;;;5094321;28;19911;-75
2023/06/14 03:33:34;;;;;;;;;;;21.50;99.90;;;;;;5093896;28;19904;-75
2023/06/14 03:36:00;;;;;;;;;;;21.50;99.90;;;;;;5093842;28;19904;-75
2023/06/14 03:38:26;;;;;;;;;;;21.60;99.90;;;;;;5093969;28;19903;-76
2023/06/14 03:40:51;;;;;;;;;;;21.50;99.90;;;;;;5093731;28;19911;-75
2023/06/14 03:43:17;;;;;;;;;;;21.50;99.90;;;;;;5075615;28;19904;-75
2023/06/14 03:45:43;;;;;;;;;;;21.50;99.90;;;;;;5094377;28;19908;-75
2023/06/14 03:48:09;;;;;;;;;;;21.50;99.90;;;;;;5093694;28;19919;-75
2023/06/14 03:50:37;;;;;;;;;;;21.40;99.90;;;;;;5094277;28;20340;-75
2023/06/14 03:53:04;;;;;;;;;;;21.40;99.90;;;;;;5093598;28;19904;-75
2023/06/14 03:55:31;;;;;;;;;;;21.40;99.90;;;;;;5093702;28;19908;-76
2023/06/14 03:57:57;;;;;;;;;;;21.40;99.90;;;;;;5093639;28;19911;-75
2023/06/14 04:00:23;;;;;;;;;;;21.40;99.90;;;;;;5093881;28;19911;-76
2023/06/14 04:02:49;;;;;;;;;;;21.40;99.90;;;;;;5093634;28;20306;-75
2023/06/14 04:05:16;;;;;;;;;;;21.40;99.90;;;;;;5093490;28;19908;-75
2023/06/14 04:07:44;;;;;;;;;;;21.40;99.90;;;;;;5093345;28;19912;-75
2023/06/14 04:10:13;;;;;;;;;;;21.50;99.90;;;;;;5093306;28;19949;-77
2023/06/14 04:12:39;;;;;;;;;;;21.50;99.90;;;;;;5093257;28;19916;-75
2023/06/14 04:15:08;;;;;;;;;;;21.60;99.90;;;;;;5093397;28;19915;-75
2023/06/14 04:17:34;;;;;;;;;;;21.60;99.90;;;;;;5093339;28;20271;-76
2023/06/14 04:20:00;;;;;;;;;;;21.60;99.90;;;;;;5093356;28;19904;-75
2023/06/14 04:22:30;;;;;;;;;;;21.60;99.90;;;;;;5093222;28;20304;-75
2023/06/14 04:24:56;;;;;;;;;;;21.60;99.90;;;;;;5093269;28;20382;-76
2023/06/14 04:27:24;;;;;;;;;;;21.60;99.90;;;;;;5093131;28;19951;-75
2023/06/14 04:29:56;;;;;;;;;;;21.70;99.90;;;;;;5091931;28;19947;-75
2023/06/14 04:32:26;;;;;;;;;;;21.30;99.90;;;;;;5094125;28;19950;-75
2023/06/14 04:34:55;;;;;;;;;;;21.40;99.90;;;;;;5099772;28;19904;-75
2023/06/14 04:37:23;;;;;;;;;;;21.50;99.90;;;;;;5099955;28;19908;-75
2023/06/14 04:39:50;;;;;;;;;;;21.60;99.90;;;;;;5100069;28;19957;-75
2023/06/14 04:42:16;;;;;;;;;;;21.80;99.90;;;;;;5099687;28;19908;-76
2023/06/14 04:44:45;;;;;;;;;;;21.90;99.90;;;;;;5081460;28;20301;-75
2023/06/14 04:47:16;;;;;;;;;;;22.00;99.90;;;;;;5080865;28;19957;-74
2023/06/14 04:49:41;;;;;;;;;;;22.10;99.90;;;;;;5099879;28;19911;-75
2023/06/14 04:52:09;;;;;;;;;;;22.10;99.90;;;;;;5099610;28;19904;-75
2023/06/14 04:54:37;;;;;;;;;;;21.90;99.90;;;;;;5099856;28;19908;-76
2023/06/14 04:57:05;;;;;;;;;;;21.90;99.90;;;;;;5100233;28;19965;-75
2023/06/14 04:59:33;;;;;;;;;;;22.10;99.90;;;;;;5099619;28;19904;-75
2023/06/14 05:01:59;;;;;;;;;;;22.30;99.90;;;;;;5099520;28;20357;-74
2023/06/14 05:04:27;;;;;;;;;;;22.50;99.90;;;;;;5099623;28;19915;-75
2023/06/14 05:06:57;;;;;;;;;;;22.50;99.90;;;;;;5099351;28;19912;-75
2023/06/14 05:09:23;;;;;;;;;;;22.70;99.90;;;;;;5099369;28;20007;-75
2023/06/14 05:11:50;;;;;;;;;;;22.90;99.90;;;;;;5098920;28;20433;-74
2023/06/14 05:14:16;;;;;;;;;;;22.70;99.90;;;;;;5099719;28;19912;-75
2023/06/14 05:16:42;;;;;;;;;;;22.60;99.90;;;;;;5080957;28;19995;-76
2023/06/14 05:19:08;;;;;;;;;;;22.60;99.90;;;;;;5099101;28;19911;-76
2023/06/14 05:21:37;;;;;;;;;;;22.60;99.90;;;;;;5099011;28;19927;-73
2023/06/14 05:24:03;;;;;;;;;;;22.70;99.90;;;;;;5099170;28;20368;-75
2023/06/14 05:26:28;;;;;;;;;;;22.80;99.90;;;;;;5098691;28;20002;-74
2023/06/14 05:28:56;;;;;;;;;;;22.90;99.90;;;;;;5099031;28;20350;-75
2023/06/14 05:31:23;;;;;;;;;;;22.80;99.90;;;;;;5080683;28;19958;-75
2023/06/14 05:33:49;;;;;;;;;;;22.80;99.90;;;;;;5098751;28;19924;-75
2023/06/14 05:36:15;;;;;;;;;;;22.90;99.90;;;;;;5098651;28;20278;-75
2023/06/14 05:38:40;;;;;;;;;;;23.00;99.90;;;;;;5099010;28;19960;-75
2023/06/14 05:41:06;;;;;;;;;;;23.00;99.90;;;;;;5098791;28;19904;-75
2023/06/14 05:43:32;;;;;;;;;;;23.10;99.90;;;;;;5098862;28;19979;-75
2023/06/14 05:45:58;;;;;;;;;;;23.00;99.90;;;;;;5094558;28;19904;-76
2023/06/14 05:48:24;;;;;;;;;;;23.20;99.90;;;;;;5095267;28;20012;-75
2023/06/14 05:50:49;;;;;;;;;;;23.40;99.90;;;;;;5095276;28;19905;-74
2023/06/14 05:53:15;;;;;;;;;;;23.50;99.90;;;;;;5076572;28;19908;-75
2023/06/14 05:55:41;;;;;;;;;;;23.80;99.90;;;;;;5095075;28;20280;-75
2023/06/14 05:58:07;;;;;;;;;;;24.00;99.90;;;;;;5094985;28;19904;-74
2023/06/14 06:00:33;;;;;;;;;;;24.50;99.90;;;;;;5094776;28;20249;-75
2023/06/14 06:02:59;;;;;;;;;;;25.20;99.90;;;;;;5093525;28;19969;-75
2023/06/14 06:05:24;;;;;;;;;;;25.70;99.90;;;;;;5076804;28;19934;-75
2023/06/14 06:07:50;;;;;;;;;;;25.90;99.90;;;;;;5094995;28;20026;-75
2023/06/14 06:10:16;;;;;;;;;;;26.00;99.90;;;;;;5076485;28;19995;-75
2023/06/14 06:12:43;;;;;;;;;;;25.80;99.90;;;;;;5093588;28;20275;-75
2023/06/14 06:15:11;;;;;;;;;;;25.60;99.90;;;;;;5095036;28;19908;-75
2023/06/14 06:17:38;;;;;;;;;;;25.10;99.90;;;;;;5095153;28;20257;-75
2023/06/14 06:20:05;;;;;;;;;;;25.00;99.90;;;;;;5095424;28;19931;-77
2023/06/14 06:22:32;;;;;;;;;;;24.90;99.90;;;;;;5095723;28;19912;-75
2023/06/14 06:24:58;;;;;;;;;;;24.80;99.90;;;;;;5094652;28;19943;-75
2023/06/14 06:27:24;;;;;;;;;;;24.60;99.90;;;;;;5095097;28;19966;-75
2023/06/14 06:29:51;;;;;;;;;;;24.40;99.90;;;;;;5094909;28;19999;-74
2023/06/14 06:32:17;;;;;;;;;;;24.60;99.90;;;;;;5095686;28;19911;-74
2023/06/14 06:34:43;;;;;;;;;;;24.50;99.90;;;;;;5094598;28;19907;-76
2023/06/14 06:37:09;;;;;;;;;;;24.50;99.90;;;;;;5095027;28;19949;-77
2023/06/14 06:39:35;;;;;;;;;;;24.60;99.90;;;;;;5094309;28;20411;-76
2023/06/14 06:42:01;;;;;;;;;;;24.70;99.90;;;;;;5093068;28;19910;-77
2023/06/14 06:44:26;;;;;;;;;;;24.70;99.90;;;;;;5094606;28;19904;-73
2023/06/14 06:46:52;;;;;;;;;;;24.90;99.90;;;;;;5094458;28;20351;-76
2023/06/14 06:49:18;;;;;;;;;;;25.10;99.90;;;;;;5094602;28;19984;-74
2023/06/14 06:51:59;;;;;;;;;;;25.30;99.90;;;;;;5094351;28;20022;-76
2023/06/14 06:54:24;;;;;;;;;;;25.30;99.90;;;;;;5076065;28;20314;-76
2023/06/14 06:56:50;;;;;;;;;;;24.50;99.90;;;;;;5075802;28;19903;-75
2023/06/14 06:59:16;;;;;;;;;;;24.60;99.90;;;;;;5093906;28;19904;-74
2023/06/14 07:01:42;;;;;;;;;;;24.50;99.90;;;;;;5094185;28;20362;-76
2023/06/14 07:04:08;;;;;;;;;;;24.20;99.90;;;;;;5092350;28;19904;-76
2023/06/14 07:06:34;;;;;;;;;;;23.90;99.90;;;;;;5094114;28;20430;-74
2023/06/14 07:09:01;;;;;;;;;;;23.80;99.90;;;;;;5093646;28;20386;-76
2023/06/14 07:11:27;;;;;;;;;;;23.20;99.90;;;;;;5093471;28;20390;-74
2023/06/14 07:13:53;;;;;;;;;;;22.90;99.90;;;;;;5093869;28;19988;-75
2023/06/14 07:16:18;;;;;;;;;;;22.90;99.90;;;;;;5093762;28;19973;-74
2023/06/14 07:18:44;;;;;;;;;;;23.00;99.90;;;;;;5093943;28;20264;-75
2023/06/14 07:21:10;;;;;;;;;;;23.20;99.90;;;;;;5093905;28;19916;-76
2023/06/14 07:23:36;;;;;;;;;;;23.20;99.90;;;;;;5093571;28;19911;-75
2023/06/14 07:26:02;;;;;;;;;;;23.30;99.90;;;;;;5092734;28;19904;-74
2023/06/14 07:28:28;;;;;;;;;;;23.30;99.90;;;;;;5093347;28;20379;-74
2023/06/14 07:30:54;;;;;;;;;;;23.30;99.90;;;;;;5093948;28;19904;-75
2023/06/14 07:33:20;;;;;;;;;;;23.20;99.90;;;;;;5093512;28;19911;-75
2023/06/14 07:35:47;;;;;;;;;;;23.20;99.90;;;;;;5093693;28;19904;-75
2023/06/14 07:38:13;;;;;;;;;;;23.30;99.90;;;;;;5093176;28;19974;-74
2023/06/14 07:40:39;;;;;;;;;;;23.20;99.90;;;;;;5092972;28;19918;-75
2023/06/14 07:43:05;;;;;;;;;;;23.10;99.90;;;;;;5093325;28;20298;-74
2023/06/14 07:45:31;;;;;;;;;;;23.10;99.90;;;;;;5093374;28;20293;-75
2023/06/14 07:47:57;;;;;;;;;;;23.00;99.90;;;;;;5093093;28;19969;-75
2023/06/14 07:50:23;;;;;;;;;;;22.80;99.90;;;;;;5093586;28;19904;-75
2023/06/14 07:52:49;;;;;;;;;;;22.50;99.90;;;;;;5093007;28;19935;-74
2023/06/14 07:55:15;;;;;;;;;;;22.60;99.90;;;;;;5093155;28;19904;-75
2023/06/14 07:57:47;;;;;;;;;;;22.80;99.90;;;;;;5092703;28;19904;-75
2023/06/14 08:00:15;;;;;;;;;;;22.90;99.90;;;;;;5092805;28;19939;-75
2023/06/14 08:02:42;;;;;;;;;;;22.90;99.90;;;;;;5092760;28;20057;-76
2023/06/14 08:05:10;;;;;;;;;;;23.10;99.90;;;;;;5092518;28;19923;-75
2023/06/14 08:07:36;;;;;;;;;;;23.00;99.90;;;;;;5091968;28;19916;-75
2023/06/14 08:10:01;;;;;;;;;;;22.90;99.90;;;;;;5092977;28;19904;-75
2023/06/14 08:12:27;;;;;;;;;;;23.10;99.90;;;;;;5092886;28;20387;-75
2023/06/14 08:14:53;;;;;;;;;;;23.30;99.90;;;;;;5093190;28;19908;-77
2023/06/14 08:17:19;;;;;;;;;;;23.50;99.90;;;;;;5092638;28;19904;-76
2023/06/14 08:19:45;;;;;;;;;;;23.50;99.90;;;;;;5090930;28;19950;-76
2023/06/14 08:22:12;;;;;;;;;;;23.70;99.90;;;;;;5092488;28;19904;-77
2023/06/14 08:24:39;;;;;;;;;;;23.80;99.90;;;;;;5074048;28;19904;-75
2023/06/14 08:27:05;;;;;;;;;;;23.80;99.90;;;;;;5092752;28;20014;-74
2023/06/14 08:29:31;;;;;;;;;;;24.20;99.90;;;;;;5092495;28;19911;-77
2023/06/14 08:31:57;;;;;;;;;;;24.30;99.90;;;;;;5092736;28;19990;-75
2023/06/14 08:34:26;;;;;;;;;;;23.40;99.90;;;;;;5092598;28;19949;-76
2023/06/14 08:36:51;;;;;;;;;;;22.70;99.90;;;;;;5091202;28;20003;-76
2023/06/14 08:39:17;;;;;;;;;;;22.90;99.90;;;;;;5092733;28;20304;-77
2023/06/14 08:41:46;;;;;;;;;;;23.20;99.90;;;;;;5092368;28;19915;-76
2023/06/14 08:44:12;;;;;;;;;;;23.40;99.90;;;;;;5092478;28;19911;-76
2023/06/14 08:46:38;;;;;;;;;;;23.50;99.90;;;;;;5092913;28;19908;-77
2023/06/14 08:49:07;;;;;;;;;;;23.30;99.90;;;;;;5092364;28;20010;-76
2023/06/14 08:51:36;;;;;;;;;;;23.50;99.90;;;;;;5092798;28;20006;-76
2023/06/14 08:54:06;;;;;;;;;;;23.10;99.90;;;;;;5092437;28;20336;-76
2023/06/14 08:56:33;;;;;;;;;;;23.10;99.90;;;;;;5092260;28;19904;-76
2023/06/14 08:59:06;;;;;;;;;;;23.20;99.90;;;;;;5092976;28;19911;-76
2023/06/14 09:01:34;;;;;;;;;;;23.40;99.90;;;;;;5092619;28;20382;-76
2023/06/14 09:04:00;;;;;;;;;;;23.50;99.90;;;;;;5092398;28;19904;-77
2023/06/14 09:06:28;;;;;;;;;;;23.60;99.90;;;;;;5092253;28;19915;-76
2023/06/14 09:08:54;;;;;;;;;;;23.80;99.90;;;;;;5074176;28;20065;-77
2023/06/14 09:11:20;;;;;;;;;;;24.20;99.90;;;;;;5092177;28;19911;-75
2023/06/14 09:13:46;;;;;;;;;;;24.50;99.90;;;;;;5092730;28;20403;-75
2023/06/14 09:16:12;;;;;;;;;;;24.30;99.90;;;;;;5092213;28;19946;-76
2023/06/14 09:18:39;;;;;;;;;;;24.60;99.90;;;;;;5092739;28;19958;-77
2023/06/14 09:21:08;;;;;;;;;;;24.30;99.90;;;;;;5096225;28;19904;-76
2023/06/14 09:23:37;;;;;;;;;;;24.60;99.90;;;;;;5096407;28;20340;-77
2023/06/14 09:26:06;;;;;;;;;;;25.30;99.90;;;;;;5096006;28;19904;-77
2023/06/14 09:28:32;;;;;;;;;;;25.30;99.90;;;;;;5078129;28;19912;-77
2023/06/14 09:30:58;;;;;;;;;;;25.70;99.90;;;;;;5096545;28;19911;-75
2023/06/14 09:33:25;;;;;;;;;;;26.10;99.90;;;;;;5095784;28;19904;-77
2023/06/14 09:35:51;;;;;;;;;;;25.50;99.90;;;;;;5096052;28;19956;-77
2023/06/14 09:38:17;;;;;;;;;;;25.60;99.90;;;;;;5077455;28;19911;-76
2023/06/14 09:40:43;;;;;;;;;;;25.70;99.90;;;;;;5095639;28;19907;-75
2023/06/14 09:43:09;;;;;;;;;;;25.90;99.90;;;;;;5096195;28;19904;-77
2023/06/14 09:45:35;;;;;;;;;;;26.20;99.90;;;;;;5095634;28;19912;-77
2023/06/14 09:48:02;;;;;;;;;;;26.20;99.90;;;;;;5095403;28;19918;-75
2023/06/14 09:50:27;;;;;;;;;;;26.40;99.90;;;;;;5095639;28;20326;-77
2023/06/14 09:52:56;;;;;;;;;;;26.30;99.90;;;;;;5095435;28;19904;-78
2023/06/14 09:55:22;;;;;;;;;;;26.60;99.90;;;;;;5077097;28;19904;-75
2023/06/14 09:57:48;;;;;;;;;;;27.10;99.90;;;;;;5093935;28;20030;-76
2023/06/14 10:00:15;;;;;;;;;;;27.10;99.90;;;;;;5095300;28;19904;-76
2023/06/14 10:02:47;;;;;;;;;;;27.60;99.90;;;;;;5095190;28;19904;-76
2023/06/14 10:05:15;;;;;;;;;;;28.00;99.90;;;;;;5095652;28;19957;-77
2023/06/14 10:07:59;;;;;;;;;;;28.30;99.90;;;;;;5094776;28;19915;-77
2023/06/14 10:10:25;;;;;;;;;;;28.00;99.90;;;;;;5095216;28;19904;-76
2023/06/14 10:12:51;;;;;;;;;;;27.90;99.90;;;;;;5094824;28;19916;-76
2023/06/14 10:15:20;;;;;;;;;;;27.40;99.90;;;;;;5095625;28;19911;-76
2023/06/14 10:17:55;;;;;;;;;;;27.50;99.90;;;;;;5094948;28;19987;-76
2023/06/14 10:20:21;;;;;;;;;;;27.90;99.90;;;;;;5094838;28;19915;-76
2023/06/14 10:22:51;;;;;;;;;;;28.00;99.90;;;;;;5095055;28;19904;-75
2023/06/14 10:25:27;;;;;;;;;;;28.20;99.90;;;;;;5094719;28;20380;-77
2023/06/14 10:27:53;;;;;;;;;;;28.20;99.90;;;;;;5094421;28;20264;-77
2023/06/14 10:30:24;;;;;;;;;;;28.50;99.90;;;;;;5094511;28;19910;-77
2023/06/14 10:33:06;;;;;;;;;;;28.50;99.90;;;;;;5095076;28;19908;-76
2023/06/14 10:35:32;;;;;;;;;;;28.20;99.90;;;;;;5094841;28;19904;-77
2023/06/14 10:38:08;;;;;;;;;;;28.10;99.90;;;;;;5094972;28;20182;-76
2023/06/14 10:40:34;;;;;;;;;;;28.00;99.90;;;;;;5094526;28;19931;-76
2023/06/14 10:43:00;;;;;;;;;;;28.00;99.90;;;;;;5094856;28;20298;-77
2023/06/14 10:45:26;;;;;;;;;;;27.90;99.90;;;;;;5094650;28;19930;-75
2023/06/14 10:47:53;;;;;;;;;;;27.80;99.90;;;;;;5094677;28;19965;-77
2023/06/14 10:50:27;;;;;;;;;;;27.90;99.90;;;;;;5094709;28;19998;-78
2023/06/14 10:52:53;;;;;;;;;;;28.30;99.90;;;;;;5076149;28;19904;-76
2023/06/14 10:55:21;;;;;;;;;;;28.20;99.90;;;;;;5093019;28;20299;-78
2023/06/14 10:57:58;;;;;;;;;;;28.50;99.90;;;;;;5094585;28;19904;-77
2023/06/14 11:00:29;;;;;;;;;;;28.80;99.90;;;;;;5094418;28;19904;-76
2023/06/14 11:03:01;;;;;;;;;;;28.50;99.90;;;;;;5094322;28;20325;-75
2023/06/14 11:05:28;;;;;;;;;;;28.00;99.90;;;;;;5094111;28;19934;-77
2023/06/14 11:08:12;;;;;;;;;;;28.30;99.90;;;;;;5075704;28;19918;-76
2023/06/14 11:10:41;;;;;;;;;;;28.40;99.90;;;;;;5093783;28;19908;-76
2023/06/14 11:13:08;;;;;;;;;;;28.10;99.90;;;;;;5093251;28;19916;-76
2023/06/14 11:15:34;;;;;;;;;;;28.20;99.90;;;;;;5093747;28;19904;-77
2023/06/14 11:18:01;;;;;;;;;;;28.00;99.90;;;;;;5094121;28;19987;-76
2023/06/14 11:20:27;;;;;;;;;;;28.40;99.90;;;;;;5094141;28;20007;-77
2023/06/14 11:22:55;;;;;;;;;;;28.50;99.90;;;;;;5093655;28;19904;-76
2023/06/14 11:25:21;;;;;;;;;;;28.50;99.90;;;;;;5093590;28;19943;-76
2023/06/14 11:27:49;;;;;;;;;;;28.60;99.90;;;;;;5093395;28;19967;-76
2023/06/14 11:30:15;;;;;;;;;;;28.80;99.90;;;;;;5093938;28;19904;-76
2023/06/14 11:32:40;;;;;;;;;;;28.90;99.90;;;;;;5093476;28;20061;-76
2023/06/14 11:35:08;;;;;;;;;;;28.50;99.90;;;;;;5093695;28;20378;-76
2023/06/14 11:37:34;;;;;;;;;;;28.70;99.90;;;;;;5093894;28;19998;-75
2023/06/14 11:40:00;;;;;;;;;;;28.80;99.90;;;;;;5093348;28;19977;-76
2023/06/14 11:42:29;;;;;;;;;;;28.60;99.90;;;;;;5092421;28;19915;-75
2023/06/14 11:44:55;;;;;;;;;;;28.90;99.90;;;;;;5093256;28;19990;-77
2023/06/14 11:47:22;;;;;;;;;;;29.00;99.90;;;;;;5093556;28;20371;-77
2023/06/14 11:49:47;;;;;;;;;;;28.40;99.90;;;;;;5093297;28;19923;-77
2023/06/14 11:52:14;;;;;;;;;;;28.50;99.90;;;;;;5093187;28;19911;-77
2023/06/14 11:54:43;;;;;;;;;;;28.40;99.90;;;;;;5093361;28;19934;-76
2023/06/14 11:57:08;;;;;;;;;;;28.30;99.90;;;;;;5092924;28;19903;-77
2023/06/14 11:59:38;;;;;;;;;;;28.70;99.90;;;;;;5092845;28;20000;-76
2023/06/14 12:02:04;;;;;;;;;;;29.00;99.90;;;;;;5093149;28;20011;-76
2023/06/14 12:04:30;;;;;;;;;;;29.50;99.90;;;;;;5093437;28;20433;-75
2023/06/14 12:06:57;;;;;;;;;;;29.40;99.90;;;;;;5092893;28;19908;-76
2023/06/14 12:09:25;;;;;;;;;;;29.30;99.90;;;;;;5093032;28;20299;-75
2023/06/14 12:11:59;;;;;;;;;;;29.00;99.90;;;;;;5087624;28;19998;-75
2023/06/14 12:14:29;;;;;;;;;;;29.20;99.90;;;;;;5072970;28;19947;-76
2023/06/14 12:17:03;;;;;;;;;;;29.20;99.90;;;;;;5072563;28;19905;-76
2023/06/14 12:19:29;;;;;;;;;;;29.40;99.90;;;;;;5073171;28;19935;-76
2023/06/14 12:21:59;;;;;;;;;;;29.20;99.90;;;;;;5072929;28;19905;-77
2023/06/14 12:24:27;;;;;;;;;;;29.00;99.90;;;;;;5072326;28;20376;-77
2023/06/14 12:26:53;;;;;;;;;;;28.30;99.90;;;;;;5072326;28;19969;-76
2023/06/14 12:29:19;;;;;;;;;;;27.90;99.90;;;;;;5071083;28;20007;-76
2023/06/14 12:31:45;;;;;;;;;;;28.00;99.90;;;;;;5071079;28;19911;-75
2023/06/14 12:34:11;;;;;;;;;;;28.20;99.90;;;;;;5072877;28;19904;-76
2023/06/14 12:36:41;;;;;;;;;;;28.20;99.90;;;;;;5072394;28;19911;-76
2023/06/14 12:39:08;;;;;;;;;;;28.50;99.90;;;;;;5072277;28;19905;-75
2023/06/14 12:41:34;;;;;;;;;;;28.10;99.90;;;;;;5072344;28;19904;-75
2023/06/14 12:44:03;;;;;;;;;;;28.00;99.90;;;;;;5072535;28;19957;-76
2023/06/14 12:46:33;;;;;;;;;;;28.10;99.90;;;;;;5087808;28;19932;-76
2023/06/14 12:48:58;;;;;;;;;;;28.40;99.90;;;;;;5072607;28;19909;-76
2023/06/14 12:51:25;;;;;;;;;;;28.60;99.90;;;;;;5072363;28;19915;-76
2023/06/14 12:53:51;;;;;;;;;;;28.60;99.90;;;;;;5073332;28;19940;-76
2023/06/14 12:56:17;;;;;;;;;;;28.90;99.90;;;;;;5076177;28;19905;-76
2023/06/14 12:58:43;;;;;;;;;;;28.80;99.90;;;;;;5076317;28;19914;-76
2023/06/14 13:01:09;;;;;;;;;;;29.00;99.90;;;;;;5076763;28;19904;-76
2023/06/14 13:03:35;;;;;;;;;;;29.00;99.90;;;;;;5076108;28;20352;-76
2023/06/14 13:06:01;;;;;;;;;;;29.20;99.90;;;;;;5076541;28;19904;-76
2023/06/14 13:08:30;;;;;;;;;;;29.10;99.90;;;;;;5074532;28;20257;-75
2023/06/14 13:10:56;;;;;;;;;;;29.30;99.90;;;;;;5075784;28;20317;-75
2023/06/14 13:13:23;;;;;;;;;;;29.30;99.90;;;;;;5092313;28;19969;-75
2023/06/14 13:15:49;;;;;;;;;;;29.00;99.90;;;;;;5096342;28;19935;-75
2023/06/14 13:18:15;;;;;;;;;;;29.00;99.90;;;;;;5096211;28;19904;-75
2023/06/14 13:20:41;;;;;;;;;;;28.50;99.90;;;;;;5095949;28;20360;-76
2023/06/14 13:23:08;;;;;;;;;;;28.30;99.90;;;;;;5096057;28;19904;-75
2023/06/14 13:25:34;;;;;;;;;;;28.00;99.90;;;;;;5096444;28;19904;-76
2023/06/14 13:28:00;;;;;;;;;;;27.70;99.90;;;;;;5096055;28;19912;-77
2023/06/14 13:30:26;;;;;;;;;;;27.30;99.90;;;;;;5096005;28;19982;-77
2023/06/14 13:32:52;;;;;;;;;;;26.90;99.90;;;;;;5096353;28;20270;-76
2023/06/14 13:35:18;;;;;;;;;;;27.10;99.90;;;;;;5096203;28;19904;-75
2023/06/14 13:37:44;;;;;;;;;;;26.90;99.90;;;;;;5077581;28;19904;-75
2023/06/14 13:40:10;;;;;;;;;;;26.80;99.90;;;;;;5095685;28;19904;-74
2023/06/14 13:42:36;;;;;;;;;;;26.50;99.90;;;;;;5096183;28;19908;-73
2023/06/14 13:45:03;;;;;;;;;;;26.60;99.90;;;;;;5095997;28;19915;-74
2023/06/14 13:47:29;;;;;;;;;;;26.60;99.90;;;;;;5095191;28;19992;-74
2023/06/14 13:49:55;;;;;;;;;;;26.30;99.90;;;;;;5095633;28;20355;-74
2023/06/14 13:52:21;;;;;;;;;;;26.20;99.90;;;;;;5096065;28;19915;-75
2023/06/14 13:54:47;;;;;;;;;;;26.30;99.90;;;;;;5095905;28;19904;-76
2023/06/14 13:57:13;;;;;;;;;;;26.10;99.90;;;;;;5095550;28;19904;-75
2023/06/14 13:59:39;;;;;;;;;;;26.10;99.90;;;;;;5095652;28;20281;-75
2023/06/14 14:02:06;;;;;;;;;;;26.10;99.90;;;;;;5096077;28;20314;-76
2023/06/14 14:04:32;;;;;;;;;;;25.70;99.90;;;;;;5077355;28;19904;-74
2023/06/14 14:06:57;;;;;;;;;;;25.40;99.90;;;;;;5094761;28;19908;-75
2023/06/14 14:09:23;;;;;;;;;;;25.00;99.90;;;;;;5095446;28;20417;-75
2023/06/14 14:11:49;;;;;;;;;;;24.80;99.90;;;;;;5073306;28;19909;-76
2023/06/14 14:14:15;;;;;;;;;;;25.00;99.90;;;;;;5075428;28;19915;-76